Time;durP1;ratioP1;P1;durP2;ratioP2;P2;SDS_P1;SDS_P2;PMS_P1;PMS_P2;Temp;Humidity;BMP_temperature;BMP_pressure;BME280_temperature;BME280_humidity;BME280_pressure;Samples;Min_cycle;Max_cycle;Signal;HPM_P1;HPM_P2
2022/04/29 00:02:16;;;;;;;13.97;10.90;;;9.00;99.90;;;;;;5053151;28;20182;-51
2022/04/29 00:04:43;;;;;;;15.67;11.43;;;9.00;99.90;;;;;;5052800;28;20273;-52
2022/04/29 00:07:10;;;;;;;16.40;11.90;;;9.00;99.90;;;;;;5052919;28;20207;-49
2022/04/29 00:09:36;;;;;;;17.33;12.53;;;9.00;99.90;;;;;;5053082;28;20213;-49
2022/04/29 00:12:04;;;;;;;18.20;12.77;;;9.00;99.90;;;;;;5053152;28;20187;-52
2022/04/29 00:14:30;;;;;;;19.23;13.53;;;9.00;99.90;;;;;;5051274;28;20226;-52
2022/04/29 00:16:56;;;;;;;19.43;12.87;;;9.00;99.90;;;;;;5053006;28;20182;-52
2022/04/29 00:19:22;;;;;;;17.17;12.63;;;9.00;99.90;;;;;;5052696;28;20239;-52
2022/04/29 00:21:48;;;;;;;19.73;13.43;;;9.00;99.90;;;;;;5052567;28;20231;-50
2022/04/29 00:24:14;;;;;;;20.00;13.20;;;9.00;99.90;;;;;;5053105;28;20190;-51
2022/04/29 00:26:40;;;;;;;19.03;13.73;;;9.00;99.90;;;;;;5052634;28;20636;-54
2022/04/29 00:29:07;;;;;;;17.60;13.57;;;8.90;99.90;;;;;;5052743;28;20182;-52
2022/04/29 00:31:34;;;;;;;20.13;13.23;;;8.90;99.90;;;;;;5052548;28;20604;-54
2022/04/29 00:34:01;;;;;;;18.10;13.07;;;8.90;99.90;;;;;;5053123;28;20234;-51
2022/04/29 00:36:26;;;;;;;18.33;13.67;;;8.90;99.90;;;;;;5052848;28;20192;-50
2022/04/29 00:38:52;;;;;;;22.57;14.50;;;8.90;99.90;;;;;;5052584;28;20182;-52
2022/04/29 00:41:20;;;;;;;21.53;13.53;;;8.90;99.90;;;;;;5051279;28;20181;-52
2022/04/29 00:43:46;;;;;;;23.17;15.43;;;8.80;99.90;;;;;;5051976;28;20185;-53
2022/04/29 00:46:12;;;;;;;23.70;15.73;;;8.80;99.90;;;;;;5052137;28;20199;-54
2022/04/29 00:48:38;;;;;;;24.97;15.87;;;8.90;99.90;;;;;;5051939;28;20178;-52
2022/04/29 00:51:05;;;;;;;23.30;15.90;;;8.90;99.90;;;;;;5052299;28;20195;-50
2022/04/29 00:53:31;;;;;;;23.50;15.93;;;8.90;99.90;;;;;;5052304;28;20202;-59
2022/04/29 00:55:58;;;;;;;22.27;15.77;;;8.90;99.90;;;;;;5052541;28;20563;-52
2022/04/29 00:58:42;;;;;;;22.27;14.87;;;8.90;99.90;;;;;;5052096;28;20185;-52
2022/04/29 01:01:08;;;;;;;23.67;15.33;;;8.90;99.90;;;;;;5052068;28;20227;-49
2022/04/29 01:03:37;;;;;;;23.73;15.33;;;8.90;99.90;;;;;;5050739;28;20680;-52
2022/04/29 01:06:03;;;;;;;23.30;15.83;;;8.90;99.90;;;;;;5052182;28;20192;-53
2022/04/29 01:08:29;;;;;;;21.73;15.43;;;8.90;99.90;;;;;;5052062;28;20182;-53
2022/04/29 01:10:55;;;;;;;24.97;16.10;;;8.80;99.90;;;;;;5052190;28;20192;-52
2022/04/29 01:13:21;;;;;;;22.47;15.27;;;8.80;99.90;;;;;;5050424;28;20209;-53
2022/04/29 01:15:48;;;;;;;23.50;15.77;;;8.80;99.90;;;;;;5051610;28;20186;-53
2022/04/29 01:18:16;;;;;;;24.97;15.10;;;8.70;99.90;;;;;;5052409;28;20651;-54
2022/04/29 01:20:43;;;;;;;27.63;17.07;;;8.70;99.90;;;;;;5051462;28;20198;-54
2022/04/29 01:23:11;;;;;;;24.50;16.17;;;8.70;99.90;;;;;;5052051;28;20197;-52
2022/04/29 01:25:38;;;;;;;22.50;15.53;;;8.80;99.90;;;;;;5051737;28;20189;-55
2022/04/29 01:28:05;;;;;;;24.93;15.37;;;8.80;99.90;;;;;;5051709;28;20539;-51
2022/04/29 01:30:31;;;;;;;22.30;14.73;;;8.70;99.90;;;;;;5051780;28;20196;-52
2022/04/29 01:32:59;;;;;;;23.77;15.53;;;8.70;99.90;;;;;;5051453;28;20213;-51
2022/04/29 01:35:25;;;;;;;26.33;16.97;;;8.80;99.90;;;;;;5051747;28;20594;-52
2022/04/29 01:37:51;;;;;;;23.97;15.50;;;8.80;99.90;;;;;;5051510;28;20190;-52
2022/04/29 01:40:17;;;;;;;26.00;16.00;;;8.80;99.90;;;;;;5051502;28;20181;-47
2022/04/29 01:42:43;;;;;;;23.70;16.57;;;8.80;99.90;;;;;;5051057;28;20190;-50
2022/04/29 01:45:10;;;;;;;26.37;17.00;;;8.80;99.90;;;;;;5051336;28;20178;-48
2022/04/29 01:47:36;;;;;;;23.40;15.67;;;8.80;99.90;;;;;;5051164;28;20178;-51
2022/04/29 01:50:03;;;;;;;25.17;16.70;;;8.80;99.90;;;;;;5051427;28;20189;-47
2022/04/29 01:52:28;;;;;;;26.50;16.13;;;8.80;99.90;;;;;;5051221;28;20186;-47
2022/04/29 01:54:54;;;;;;;24.97;16.30;;;8.80;99.90;;;;;;5051089;28;20224;-50
2022/04/29 01:57:20;;;;;;;24.67;16.27;;;8.80;99.90;;;;;;5051102;28;20186;-48
2022/04/29 01:59:46;;;;;;;27.87;17.87;;;8.80;99.90;;;;;;5051112;28;20189;-51
2022/04/29 02:02:11;;;;;;;28.57;17.77;;;8.90;99.90;;;;;;5051311;28;20257;-52
2022/04/29 02:04:37;;;;;;;26.77;17.40;;;8.90;99.90;;;;;;5051135;28;20205;-51
2022/04/29 02:07:07;;;;;;;26.20;17.17;;;8.80;99.90;;;;;;5051331;28;20193;-49
2022/04/29 02:09:33;;;;;;;25.40;16.67;;;8.80;99.90;;;;;;5051278;28;20182;-48
2022/04/29 02:12:05;;;;;;;25.27;16.87;;;8.80;99.90;;;;;;5050819;28;20186;-50
2022/04/29 02:14:35;;;;;;;25.53;16.57;;;8.80;99.90;;;;;;5053430;28;20224;-48
2022/04/29 02:17:05;;;;;;;28.50;17.77;;;8.80;99.90;;;;;;5055218;28;20186;-48
2022/04/29 02:19:31;;;;;;;27.47;15.73;;;8.80;99.90;;;;;;5055060;28;20663;-48
2022/04/29 02:21:57;;;;;;;24.63;15.57;;;8.80;99.90;;;;;;5054851;28;20240;-50
2022/04/29 02:24:23;;;;;;;29.00;17.60;;;8.80;99.90;;;;;;5055027;28;20189;-52
2022/04/29 02:26:49;;;;;;;25.50;18.23;;;8.80;99.90;;;;;;5055198;28;20670;-48
2022/04/29 02:29:15;;;;;;;24.57;17.47;;;8.80;99.90;;;;;;5037127;28;20185;-49
2022/04/29 02:31:41;;;;;;;27.87;16.73;;;8.80;99.90;;;;;;5054684;28;20247;-50
2022/04/29 02:34:07;;;;;;;26.97;17.00;;;8.80;99.90;;;;;;5055044;28;20237;-51
2022/04/29 02:36:33;;;;;;;26.17;16.43;;;8.70;99.90;;;;;;5053629;28;20191;-49
2022/04/29 02:39:01;;;;;;;23.40;15.97;;;8.70;99.90;;;;;;5054356;28;20194;-51
2022/04/29 02:41:27;;;;;;;30.40;17.87;;;8.80;99.90;;;;;;5054852;28;20186;-53
2022/04/29 02:43:53;;;;;;;30.57;18.23;;;8.80;99.90;;;;;;5054581;28;20240;-52
2022/04/29 02:46:18;;;;;;;29.47;19.00;;;8.70;99.90;;;;;;5054786;28;20186;-52
2022/04/29 02:48:46;;;;;;;29.73;18.50;;;8.80;99.90;;;;;;5054389;28;20217;-52
2022/04/29 02:51:13;;;;;;;28.13;18.93;;;8.80;99.90;;;;;;5055052;28;20189;-53
2022/04/29 02:53:39;;;;;;;31.47;18.07;;;8.80;99.90;;;;;;5054160;28;20578;-51
2022/04/29 02:56:05;;;;;;;27.10;16.83;;;8.80;99.90;;;;;;5054678;28;20183;-52
2022/04/29 02:58:30;;;;;;;28.20;16.97;;;8.80;99.90;;;;;;5054561;28;20546;-51
2022/04/29 03:00:56;;;;;;;30.47;18.27;;;8.80;99.90;;;;;;5054390;28;20644;-55
2022/04/29 03:03:22;;;;;;;29.00;18.70;;;8.80;99.90;;;;;;5054406;28;20206;-51
2022/04/29 03:05:48;;;;;;;27.97;18.47;;;8.80;99.90;;;;;;5054322;28;20211;-50
2022/04/29 03:08:14;;;;;;;29.00;17.83;;;8.80;99.90;;;;;;5054243;28;20214;-50
2022/04/29 03:10:39;;;;;;;29.00;18.30;;;8.90;99.90;;;;;;5054408;28;20660;-53
2022/04/29 03:13:05;;;;;;;30.90;18.13;;;8.90;99.90;;;;;;5052867;28;20189;-54
2022/04/29 03:15:33;;;;;;;29.53;18.20;;;8.90;99.90;;;;;;5054402;28;20652;-52
2022/04/29 03:20:43;;;;;;;31.17;19.67;;;8.90;99.90;;;;;;5054043;28;20229;-52
2022/04/29 03:23:10;;;;;;;34.17;20.70;;;8.90;99.90;;;;;;5054032;28;20508;-53
2022/04/29 03:25:36;;;;;;;34.27;20.83;;;9.00;99.90;;;;;;5052665;28;20177;-49
2022/04/29 03:28:05;;;;;;;32.80;20.07;;;8.90;99.90;;;;;;5053775;28;20331;-56
2022/04/29 03:30:31;;;;;;;34.70;20.77;;;8.90;99.90;;;;;;5053576;28;20180;-52
2022/04/29 03:32:59;;;;;;;37.57;21.77;;;8.90;99.90;;;;;;5053419;28;20171;-52
2022/04/29 03:35:25;;;;;;;39.83;21.67;;;8.90;99.90;;;;;;5053674;28;20229;-51
2022/04/29 03:37:52;;;;;;;42.10;23.47;;;8.90;99.90;;;;;;5053313;28;20651;-54
2022/04/29 03:40:22;;;;;;;34.57;21.20;;;9.00;99.90;;;;;;5052454;28;20183;-54
2022/04/29 03:42:56;;;;;;;37.87;21.13;;;9.00;99.90;;;;;;5053484;28;20274;-54
2022/04/29 03:45:24;;;;;;;35.73;22.60;;;9.00;99.90;;;;;;5053288;28;20182;-51
2022/04/29 03:47:50;;;;;;;37.27;21.10;;;9.00;99.90;;;;;;5052875;28;20663;-54
2022/04/29 03:50:16;;;;;;;36.43;22.90;;;9.10;99.90;;;;;;5053243;28;20259;-51
2022/04/29 03:52:54;;;;;;;36.73;20.87;;;9.00;99.90;;;;;;5053108;28;20266;-54
2022/04/29 03:55:21;;;;;;;33.77;21.00;;;9.10;99.90;;;;;;5053012;28;20252;-51
2022/04/29 03:57:47;;;;;;;36.23;21.07;;;9.10;99.90;;;;;;5053009;28;20175;-51
2022/04/29 04:00:14;;;;;;;35.03;20.00;;;9.10;99.90;;;;;;5052989;28;20585;-54
2022/04/29 04:02:40;;;;;;;31.13;18.67;;;9.10;99.90;;;;;;5053030;28;20184;-57
2022/04/29 04:05:07;;;;;;;33.17;18.50;;;9.20;99.90;;;;;;5052993;28;20198;-52
2022/04/29 04:07:33;;;;;;;31.50;18.47;;;9.10;99.90;;;;;;5052974;28;20220;-55
2022/04/29 04:09:59;;;;;;;34.17;18.40;;;9.20;99.90;;;;;;5052414;28;20587;-55
2022/04/29 04:12:25;;;;;;;28.90;16.90;;;9.20;99.90;;;;;;5052982;28;20257;-53
2022/04/29 04:14:52;;;;;;;27.97;17.80;;;9.10;99.90;;;;;;5052034;28;20564;-52
2022/04/29 04:17:18;;;;;;;30.60;17.93;;;9.10;99.90;;;;;;5053108;28;20187;-53
2022/04/29 04:19:43;;;;;;;30.20;17.77;;;9.10;99.90;;;;;;5051299;28;20737;-53
2022/04/29 04:22:10;;;;;;;28.87;17.97;;;9.10;99.90;;;;;;5051319;28;20292;-53
2022/04/29 04:24:36;;;;;;;27.10;17.17;;;9.20;99.90;;;;;;5052480;28;20186;-52
2022/04/29 04:27:02;;;;;;;29.53;18.47;;;9.20;99.90;;;;;;5051464;28;20865;-55
2022/04/29 04:29:27;;;;;;;28.63;17.60;;;9.30;99.90;;;;;;5051807;28;20680;-54
2022/04/29 04:31:53;;;;;;;29.87;17.63;;;9.40;99.90;;;;;;5052386;28;20171;-52
2022/04/29 04:37:03;;;;;;;29.13;17.40;;;9.50;99.90;;;;;;5052062;28;20206;-51
2022/04/29 04:39:29;;;;;;;30.10;17.70;;;9.60;99.90;;;;;;5050930;28;20202;-51
2022/04/29 04:41:55;;;;;;;32.80;18.50;;;9.60;99.90;;;;;;5052056;28;20186;-51
2022/04/29 04:44:21;;;;;;;27.87;16.33;;;9.70;99.90;;;;;;5052223;28;20541;-54
2022/04/29 04:46:47;;;;;;;26.03;16.50;;;9.60;99.90;;;;;;5051870;28;20203;-52
2022/04/29 04:49:13;;;;;;;24.87;16.83;;;9.70;99.90;;;;;;5051674;28;20187;-52
2022/04/29 04:51:39;;;;;;;27.47;17.47;;;9.70;99.90;;;;;;5052048;28;20191;-53
2022/04/29 04:54:05;;;;;;;29.10;17.60;;;9.80;99.90;;;;;;5050371;28;20561;-49
2022/04/29 04:56:31;;;;;;;26.93;18.60;;;9.80;99.90;;;;;;5050201;28;20200;-53
2022/04/29 04:58:57;;;;;;;24.97;16.30;;;9.80;99.90;;;;;;5051809;28;20267;-53
2022/04/29 05:01:23;;;;;;;31.37;19.00;;;9.80;99.90;;;;;;5051958;28;20328;-54
2022/04/29 05:03:48;;;;;;;26.57;17.70;;;9.90;99.90;;;;;;5051139;28;20266;-53
2022/04/29 05:06:14;;;;;;;29.63;18.67;;;10.00;99.90;;;;;;5051514;28;20551;-55
2022/04/29 05:08:41;;;;;;;31.80;19.00;;;9.90;99.90;;;;;;5051534;28;20645;-56
2022/04/29 05:11:06;;;;;;;34.93;20.47;;;10.00;99.90;;;;;;5050968;28;20207;-54
2022/04/29 05:13:32;;;;;;;36.23;21.63;;;10.10;99.90;;;;;;5051312;28;20233;-49
2022/04/29 05:15:58;;;;;;;32.10;20.40;;;10.10;99.90;;;;;;5050953;28;20205;-52
2022/04/29 05:18:23;;;;;;;31.50;20.00;;;10.10;99.90;;;;;;5049940;28;20208;-52
2022/04/29 05:20:49;;;;;;;34.80;21.33;;;10.30;99.90;;;;;;5050578;28;20553;-55
2022/04/29 05:23:15;;;;;;;37.77;22.33;;;10.40;99.90;;;;;;5051496;28;20186;-56
2022/04/29 05:25:41;;;;;;;36.93;21.80;;;10.30;99.90;;;;;;5050979;28;20665;-54
2022/04/29 05:28:08;;;;;;;35.20;21.97;;;10.20;99.90;;;;;;5051002;28;20209;-53
2022/04/29 05:30:34;;;;;;;41.57;23.43;;;10.20;99.90;;;;;;5051108;28;20192;-53
2022/04/29 05:33:01;;;;;;;37.50;23.33;;;10.30;99.90;;;;;;5050546;28;20319;-54
2022/04/29 05:35:28;;;;;;;44.97;23.73;;;10.40;99.90;;;;;;5050609;28;20654;-57
2022/04/29 05:37:54;;;;;;;34.97;21.40;;;10.40;99.90;;;;;;5050621;28;20178;-56
2022/04/29 05:43:06;;;;;;;35.00;20.57;;;10.50;99.90;;;;;;5050694;28;20669;-54
2022/04/29 05:45:31;;;;;;;38.73;21.13;;;10.60;99.90;;;;;;5049619;28;20238;-53
2022/04/29 05:47:57;;;;;;;26.03;17.73;;;10.70;99.90;;;;;;5049884;28;20189;-55
2022/04/29 05:50:23;;;;;;;31.70;17.67;;;10.70;99.90;;;;;;5048615;28;20280;-52
2022/04/29 05:52:49;;;;;;;28.53;17.60;;;10.70;99.90;;;;;;5050767;28;20182;-56
2022/04/29 05:55:15;;;;;;;31.33;19.33;;;10.70;99.90;;;;;;5050805;28;20225;-56
2022/04/29 05:57:40;;;;;;;33.00;19.37;;;10.80;99.90;;;;;;5050329;28;20197;-53
2022/04/29 06:00:07;;;;;;;37.50;20.20;;;10.90;99.90;;;;;;5049678;28;20179;-54
2022/04/29 06:02:33;;;;;;;31.57;19.67;;;11.00;99.90;;;;;;5050062;28;20213;-54
2022/04/29 06:05:03;;;;;;;29.13;17.97;;;11.00;99.90;;;;;;5049898;28;20631;-54
2022/04/29 06:07:28;;;;;;;34.23;18.90;;;10.90;99.90;;;;;;5050286;28;20202;-54
2022/04/29 06:09:54;;;;;;;31.50;17.43;;;11.00;99.90;;;;;;5050243;28;20201;-55
2022/04/29 06:12:20;;;;;;;22.90;14.33;;;11.10;99.90;;;;;;5049204;28;20182;-55
2022/04/29 06:14:46;;;;;;;25.37;16.13;;;11.20;99.90;;;;;;5050579;28;20214;-55
2022/04/29 06:17:15;;;;;;;27.47;17.10;;;11.40;99.90;;;;;;5048794;28;20189;-55
2022/04/29 06:19:40;;;;;;;33.40;15.10;;;11.70;99.90;;;;;;5050621;28;20257;-55
2022/04/29 06:22:06;;;;;;;24.63;14.43;;;11.90;99.90;;;;;;5050138;28;20322;-53
2022/04/29 06:24:33;;;;;;;27.93;13.83;;;12.10;99.90;;;;;;5050820;28;20260;-56
2022/04/29 06:26:59;;;;;;;24.50;13.33;;;12.10;99.90;;;;;;5050407;28;20217;-54
2022/04/29 06:29:25;;;;;;;22.07;13.73;;;12.20;99.90;;;;;;5050307;28;20654;-56
2022/04/29 06:31:50;;;;;;;36.20;14.87;;;12.20;99.90;;;;;;5050187;28;20194;-55
2022/04/29 06:34:16;;;;;;;29.33;12.20;;;12.50;99.90;;;;;;5050375;28;20214;-57
2022/04/29 06:36:42;;;;;;;31.33;13.73;;;12.30;99.90;;;;;;5050036;28;20273;-58
2022/04/29 06:39:08;;;;;;;22.70;13.30;;;12.20;99.90;;;;;;5048818;28;20660;-57
2022/04/29 06:41:36;;;;;;;31.07;13.50;;;12.20;99.90;;;;;;5050446;28;20610;-56
2022/04/29 06:44:02;;;;;;;18.67;10.50;;;12.30;99.90;;;;;;5050299;28;20206;-56
2022/04/29 06:46:28;;;;;;;25.63;12.70;;;12.40;99.90;;;;;;5050038;28;20190;-55
2022/04/29 06:48:55;;;;;;;27.03;12.73;;;12.40;99.90;;;;;;5049694;28;20578;-57
2022/04/29 06:51:22;;;;;;;33.60;13.50;;;12.80;99.90;;;;;;5049641;28;20171;-57
2022/04/29 06:53:48;;;;;;;27.87;13.00;;;12.90;99.90;;;;;;5048787;28;20679;-55
2022/04/29 06:56:14;;;;;;;23.30;10.80;;;13.00;99.90;;;;;;5050072;28;20174;-55
2022/04/29 06:58:39;;;;;;;42.20;12.30;;;13.00;99.90;;;;;;5050254;28;20185;-56
2022/04/29 07:01:06;;;;;;;16.87;9.43;;;13.30;99.90;;;;;;5052518;28;20186;-59
2022/04/29 07:03:32;;;;;;;15.17;9.47;;;13.30;99.90;;;;;;5053298;28;20198;-58
2022/04/29 07:06:00;;;;;;;30.70;10.73;;;13.20;99.90;;;;;;5052464;28;20538;-56
2022/04/29 07:08:28;;;;;;;21.03;10.37;;;13.30;99.90;;;;;;5053285;28;20201;-60
2022/04/29 07:10:56;;;;;;;15.13;9.23;;;13.20;99.90;;;;;;5052866;28;20214;-59
2022/04/29 07:13:22;;;;;;;25.77;9.10;;;13.20;99.90;;;;;;5053313;28;20180;-60
2022/04/29 07:15:48;;;;;;;25.43;11.43;;;13.30;99.90;;;;;;5053152;28;20187;-57
2022/04/29 07:18:15;;;;;;;19.67;9.47;;;13.40;99.90;;;;;;5053282;28;20184;-59
2022/04/29 07:20:41;;;;;;;22.67;9.63;;;13.60;99.90;;;;;;5053001;28;20186;-60
2022/04/29 07:23:07;;;;;;;20.90;9.97;;;13.50;99.90;;;;;;5053021;28;20167;-60
2022/04/29 07:25:33;;;;;;;26.87;9.50;;;13.40;99.90;;;;;;5051585;28;20204;-60
2022/04/29 07:27:59;;;;;;;25.37;9.90;;;13.60;99.90;;;;;;5052781;28;20212;-59
2022/04/29 07:30:26;;;;;;;22.93;9.00;;;13.80;99.90;;;;;;5051724;28;20670;-59
2022/04/29 07:32:52;;;;;;;25.67;10.77;;;13.90;99.90;;;;;;5052656;28;20178;-60
2022/04/29 07:43:31;;;;;;;16.67;8.37;;;13.90;99.90;;;;;;5052570;28;20197;-60
2022/04/29 07:45:58;;;;;;;18.23;9.77;;;13.80;99.90;;;;;;5052396;28;20183;-59
2022/04/29 07:48:24;;;;;;;18.30;8.87;;;13.80;99.90;;;;;;5052457;28;20288;-60
2022/04/29 07:50:50;;;;;;;20.97;9.90;;;13.80;99.90;;;;;;5052598;28;20272;-59
2022/04/29 07:53:16;;;;;;;19.23;8.77;;;13.90;99.90;;;;;;5052138;28;20273;-61
2022/04/29 07:55:42;;;;;;;23.50;10.33;;;13.90;99.90;;;;;;5052162;28;20265;-60
2022/04/29 07:58:09;;;;;;;25.20;11.37;;;13.80;99.90;;;;;;5052682;28;20183;-61
2022/04/29 08:00:37;;;;;;;20.57;11.33;;;14.10;99.90;;;;;;5053171;28;20655;-62
2022/04/29 08:03:03;;;;;;;18.63;9.63;;;14.30;99.90;;;;;;5052170;28;20185;-60
2022/04/29 08:05:30;;;;;;;15.73;7.80;;;14.60;99.90;;;;;;5052180;28;20190;-60
2022/04/29 08:07:59;;;;;;;18.70;8.20;;;14.80;99.90;;;;;;5051345;28;20186;-62
2022/04/29 08:10:29;;;;;;;16.47;8.93;;;14.60;99.90;;;;;;5051136;28;20586;-59
2022/04/29 08:12:57;;;;;;;33.53;10.13;;;14.70;99.90;;;;;;5051070;28;20174;-59
2022/04/29 08:15:28;;;;;;;31.30;9.27;;;14.90;99.90;;;;;;5051834;28;20232;-61
2022/04/29 08:17:53;;;;;;;12.07;5.87;;;15.20;99.90;;;;;;5050548;28;20175;-59
2022/04/29 08:20:20;;;;;;;13.80;6.47;;;15.30;99.90;;;;;;5052233;28;20178;-59
2022/04/29 08:22:46;;;;;;;12.70;6.87;;;15.50;99.90;;;;;;5052015;28;20261;-60
2022/04/29 08:25:12;;;;;;;20.23;8.07;;;15.80;99.90;;;;;;5051927;28;20199;-59
2022/04/29 08:27:38;;;;;;;19.83;6.47;;;16.00;99.90;;;;;;5052059;28;20194;-60
2022/04/29 08:30:08;;;;;;;14.23;6.10;;;15.80;99.90;;;;;;5051808;28;20186;-62
2022/04/29 08:32:51;;;;;;;22.37;6.57;;;15.80;99.90;;;;;;5049718;28;20182;-58
2022/04/29 08:35:17;;;;;;;22.37;7.17;;;15.40;99.90;;;;;;5051771;28;20329;-58
2022/04/29 08:37:43;;;;;;;14.63;7.00;;;15.50;99.90;;;;;;5051827;28;20182;-57
2022/04/29 08:40:11;;;;;;;16.17;7.03;;;15.50;99.90;;;;;;5051329;28;20181;-59
2022/04/29 08:42:40;;;;;;;14.30;7.50;;;15.30;99.90;;;;;;5051388;28;20612;-59
2022/04/29 08:45:11;;;;;;;14.13;6.43;;;15.30;99.90;;;;;;5051437;28;20185;-61
2022/04/29 08:47:46;;;;;;;16.77;8.20;;;15.40;99.90;;;;;;5049778;28;20186;-58
2022/04/29 08:50:20;;;;;;;17.50;7.20;;;15.70;99.90;;;;;;5051643;28;20178;-58
2022/04/29 08:52:48;;;;;;;21.63;8.03;;;15.70;99.90;;;;;;5051658;28;20175;-61
2022/04/29 09:00:44;;;;;;;10.03;6.27;;;15.00;99.90;;;;;;5051571;28;20197;-62
2022/04/29 09:03:22;;;;;;;17.40;6.83;;;14.90;99.90;;;;;;5049573;28;20190;-61
2022/04/29 09:05:49;;;;;;;14.67;6.47;;;15.00;99.90;;;;;;5050922;28;20229;-59
2022/04/29 09:08:16;;;;;;;30.73;7.30;;;15.50;99.90;;;;;;5050906;28;20191;-58
2022/04/29 09:10:56;;;;;;;29.07;7.07;;;15.90;99.90;;;;;;5050842;28;20182;-58
2022/04/29 09:13:24;;;;;;;12.17;5.37;;;16.20;99.90;;;;;;5050510;28;20269;-59
2022/04/29 09:16:19;;;;;;;11.73;6.17;;;16.00;99.90;;;;;;5049129;28;20257;-59
2022/04/29 09:18:55;;;;;;;14.23;6.33;;;16.10;99.90;;;;;;5045863;28;20206;-60
2022/04/29 09:21:26;;;;;;;16.10;7.37;;;16.00;99.90;;;;;;5049376;28;20233;-59
2022/04/29 09:23:57;;;;;;;16.60;6.93;;;15.90;99.90;;;;;;5050661;28;20257;-58
2022/04/29 09:26:28;;;;;;;9.37;6.10;;;15.80;99.90;;;;;;5050453;28;20209;-58
2022/04/29 09:29:08;;;;;;;16.27;7.07;;;15.70;99.90;;;;;;5050634;28;20261;-58
2022/04/29 09:31:49;;;;;;;17.00;6.67;;;16.00;99.90;;;;;;5051427;28;20220;-58
2022/04/29 09:34:14;;;;;;;14.23;6.20;;;16.30;99.90;;;;;;5050457;28;20229;-58
2022/04/29 09:36:40;;;;;;;14.97;6.53;;;16.10;99.90;;;;;;5050711;28;20186;-60
2022/04/29 09:41:54;;;;;;;10.80;4.30;;;16.50;99.90;;;;;;5050533;28;20239;-58
2022/04/29 09:44:33;;;;;;;10.33;5.03;;;16.50;99.90;;;;;;5050223;28;20178;-59
2022/04/29 09:47:20;;;;;;;11.53;3.57;;;16.20;99.90;;;;;;5050229;28;20235;-59
2022/04/29 09:49:58;;;;;;;17.67;5.07;;;16.40;99.90;;;;;;5050140;28;20674;-60
2022/04/29 09:52:25;;;;;;;10.67;3.33;;;16.60;99.00;;;;;;5049937;28;20185;-58
2022/04/29 09:54:51;;;;;;;9.33;3.67;;;16.90;98.90;;;;;;5048314;28;20214;-58
2022/04/29 09:57:24;;;;;;;13.73;3.73;;;17.00;97.80;;;;;;5049585;28;20189;-59
2022/04/29 09:59:52;;;;;;;5.27;3.57;;;17.10;96.90;;;;;;5050089;28;20258;-57
2022/04/29 10:02:24;;;;;;;17.83;5.40;;;17.40;97.00;;;;;;5049989;28;20619;-62
2022/04/29 10:04:51;;;;;;;12.13;3.83;;;17.70;96.10;;;;;;5050099;28;20187;-60
2022/04/29 10:07:20;;;;;;;16.73;4.37;;;17.80;96.00;;;;;;5050051;28;20194;-59
2022/04/29 10:09:48;;;;;;;17.93;3.87;;;17.90;98.30;;;;;;5050239;28;20213;-59
2022/04/29 10:12:19;;;;;;;14.05;4.30;;;18.10;95.00;;;;;;5050081;28;20175;-59
2022/04/29 10:14:47;;;;;;;12.83;4.17;;;18.10;94.10;;;;;;5049864;28;20620;-57
2022/04/29 10:23:03;;;;;;;8.05;3.45;;;17.90;94.80;;;;;;5049915;28;20232;-60
2022/04/29 10:25:29;;;;;;;20.25;9.05;;;17.90;95.50;;;;;;5050389;28;20178;-59
2022/04/29 10:27:55;;;;;;;7.82;3.10;;;17.70;93.90;;;;;;5050173;28;20183;-58
2022/04/29 10:30:35;;;;;;;7.33;3.40;;;17.60;94.80;;;;;;5049869;28;20269;-59
2022/04/29 10:33:04;;;;;;;11.30;3.50;;;17.60;95.00;;;;;;5049864;28;20552;-58
2022/04/29 10:35:56;;;;;;;7.57;3.63;;;17.50;96.20;;;;;;5050440;28;20646;-59
2022/04/29 10:38:39;;;;;;;16.40;3.73;;;17.40;96.70;;;;;;5054212;28;20174;-58
2022/04/29 10:41:10;;;;;;;14.20;4.13;;;17.50;97.60;;;;;;5053773;28;20651;-59
2022/04/29 10:43:56;;;;;;;7.43;3.40;;;17.40;95.20;;;;;;5053697;28;20182;-58
2022/04/29 10:46:37;;;;;;;23.37;5.20;;;17.30;95.40;;;;;;5052941;28;20316;-60
2022/04/29 10:49:35;;;;;;;11.77;4.40;;;17.20;97.60;;;;;;5053810;28;20194;-59
2022/04/29 10:52:02;;;;;;;14.10;4.63;;;17.10;97.90;;;;;;5041596;28;20198;-60
2022/04/29 10:54:34;;;;;;;16.40;3.43;;;17.40;97.60;;;;;;5051673;28;20230;-61
2022/04/29 10:57:02;;;;;;;15.97;3.90;;;17.80;97.80;;;;;;5052999;28;20175;-59
2022/04/29 10:59:47;;;;;;;11.17;4.00;;;17.90;95.80;;;;;;5053238;28;20243;-58
2022/04/29 11:02:29;;;;;;;13.27;3.47;;;18.20;96.30;;;;;;5053715;28;20630;-60
2022/04/29 11:04:56;;;;;;;10.57;3.28;;;18.20;95.10;;;;;;5051801;28;20190;-58
2022/04/29 11:07:39;;;;;;;8.88;4.20;;;18.60;94.50;;;;;;5053392;28;20273;-58
2022/04/29 11:10:07;;;;;;;10.88;3.30;;;18.70;93.30;;;;;;5053585;28;20557;-61
2022/04/29 11:12:36;;;;;;;5.88;3.15;;;18.60;92.00;;;;;;5051921;28;20182;-60
2022/04/29 11:15:16;;;;;;;11.80;4.20;;;18.70;92.70;;;;;;5052139;28;20246;-62
2022/04/29 11:17:43;;;;;;;18.10;3.78;;;18.50;92.50;;;;;;5053665;28;20288;-60
2022/04/29 11:20:23;;;;;;;5.97;2.80;;;18.00;92.30;;;;;;5053230;28;20214;-59
2022/04/29 11:25:52;;;;;;;15.52;3.88;;;18.50;90.30;;;;;;5053584;28;20643;-61
2022/04/29 11:28:18;;;;;;;7.90;3.47;;;18.40;89.20;;;;;;5052735;28;20218;-60
2022/04/29 11:30:46;;;;;;;9.35;3.55;;;18.40;90.10;;;;;;5052977;28;20600;-60
2022/04/29 11:33:12;;;;;;;15.83;4.10;;;18.20;91.00;;;;;;5052720;28;20178;-58
2022/04/29 11:35:39;;;;;;;10.98;3.58;;;17.60;90.70;;;;;;5051709;28;20901;-59
2022/04/29 11:38:07;;;;;;;7.40;3.60;;;17.50;93.30;;;;;;5052821;28;20404;-60
2022/04/29 11:40:38;;;;;;;15.07;3.97;;;17.30;92.50;;;;;;5053088;28;20257;-60
2022/04/29 11:43:10;;;;;;;9.07;3.55;;;17.40;93.50;;;;;;5053403;28;20170;-59
2022/04/29 11:45:37;;;;;;;7.40;2.90;;;17.60;94.30;;;;;;5053164;28;20178;-59
2022/04/29 11:48:05;;;;;;;13.38;3.30;;;17.80;92.30;;;;;;5051977;28;20707;-60
2022/04/29 11:50:32;;;;;;;8.32;2.70;;;18.10;92.10;;;;;;5052933;28;20246;-60
2022/04/29 11:53:07;;;;;;;8.75;3.50;;;18.30;92.40;;;;;;5052957;28;20566;-61
2022/04/29 11:55:33;;;;;;;6.82;2.97;;;18.70;92.50;;;;;;5051183;28;20217;-58
2022/04/29 11:57:59;;;;;;;5.47;3.10;;;19.60;90.50;;;;;;5053009;28;20207;-59
2022/04/29 12:00:28;;;;;;;8.18;2.90;;;20.30;86.10;;;;;;5052349;28;20269;-59
2022/04/29 12:02:56;;;;;;;13.02;3.00;;;20.80;84.20;;;;;;5052766;28;20267;-58
2022/04/29 12:05:23;;;;;;;12.52;3.95;;;20.60;80.90;;;;;;5051093;28;20190;-59
2022/04/29 12:07:49;;;;;;;7.22;3.03;;;20.30;80.00;;;;;;5052397;28;20178;-59
2022/04/29 12:10:27;;;;;;;10.05;3.78;;;19.70;81.20;;;;;;5051915;28;20189;-60
2022/04/29 12:12:57;;;;;;;9.55;3.58;;;19.30;84.60;;;;;;5052779;28;20747;-61
2022/04/29 12:15:28;;;;;;;18.08;5.43;;;18.90;85.90;;;;;;5051688;28;20293;-60
2022/04/29 12:18:09;;;;;;;11.55;4.13;;;18.80;90.80;;;;;;5052444;28;20185;-58
2022/04/29 12:20:40;;;;;;;8.05;2.90;;;19.00;87.60;;;;;;5051279;28;20535;-60
2022/04/29 12:23:20;;;;;;;10.88;3.08;;;18.80;84.70;;;;;;5052885;28;20240;-59
2022/04/29 12:25:47;;;;;;;17.85;4.68;;;19.00;89.00;;;;;;5051912;28;20282;-59
2022/04/29 12:28:19;;;;;;;18.00;4.00;;;19.40;86.60;;;;;;5051701;28;20182;-58
2022/04/29 12:36:59;;;;;;;18.88;3.15;;;20.20;81.60;;;;;;5051845;28;20594;-58
2022/04/29 12:39:47;;;;;;;16.55;3.85;;;21.10;74.70;;;;;;5051611;28;20640;-58
2022/04/29 12:42:16;;;;;;;8.25;3.10;;;21.50;71.00;;;;;;5051686;28;20183;-59
2022/04/29 12:45:12;;;;;;;11.73;3.63;;;21.90;69.20;;;;;;5051429;28;20235;-60
2022/04/29 12:47:46;;;;;;;17.27;4.18;;;22.70;66.80;;;;;;5051616;28;20547;-60
2022/04/29 12:50:28;;;;;;;9.55;3.75;;;24.10;64.00;;;;;;5051289;28;20178;-60
2022/04/29 12:52:57;;;;;;;9.30;4.97;;;26.20;58.10;;;;;;5051636;28;20190;-59
2022/04/29 12:55:23;;;;;;;6.43;2.97;;;28.50;54.10;;;;;;5051137;28;20299;-59
2022/04/29 12:57:49;;;;;;;17.73;3.60;;;29.40;49.00;;;;;;5051047;28;20175;-59
2022/04/29 13:00:25;;;;;;;11.05;3.42;;;28.70;46.60;;;;;;5051300;28;20520;-59
2022/04/29 13:03:05;;;;;;;12.00;3.20;;;26.40;47.80;;;;;;5051262;28;20642;-59
2022/04/29 13:05:31;;;;;;;10.05;3.00;;;25.10;49.50;;;;;;5051615;28;20213;-59
2022/04/29 13:07:57;;;;;;;23.10;4.05;;;26.30;50.40;;;;;;5051483;28;20190;-59
2022/04/29 13:10:23;;;;;;;5.82;3.50;;;27.10;48.00;;;;;;5051010;28;20178;-59
2022/04/29 13:12:50;;;;;;;8.90;3.47;;;27.70;46.70;;;;;;5050397;28;20187;-60
2022/04/29 13:15:16;;;;;;;18.75;4.18;;;26.30;47.00;;;;;;5050745;28;20586;-60
2022/04/29 13:17:42;;;;;;;14.35;3.67;;;27.20;47.20;;;;;;5051683;28;20205;-59
2022/04/29 13:20:08;;;;;;;5.22;2.83;;;27.20;47.00;;;;;;5051206;28;20540;-58
2022/04/29 13:22:38;;;;;;;11.13;4.63;;;27.00;46.90;;;;;;5050259;28;20326;-59